Time;durP1;ratioP1;P1;durP2;ratioP2;P2;SDS_P1;SDS_P2;PMS_P1;PMS_P2;Temp;Humidity;BMP_temperature;BMP_pressure;BME280_temperature;BME280_humidity;BME280_pressure;Samples;Min_cycle;Max_cycle;Signal;HPM_P1;HPM_P2
2021/03/05 00:01:18;;;;;;;0.50;0.50;;;4.80;99.90;;;;;;5012480;28;20273;-83
2021/03/05 00:03:45;;;;;;;0.20;0.20;;;4.80;99.90;;;;;;5013828;28;20214;-83
2021/03/05 00:06:11;;;;;;;0.20;0.20;;;4.90;99.90;;;;;;5011067;28;20272;-83
2021/03/05 00:08:37;;;;;;;0.03;0.03;;;4.90;99.90;;;;;;5012350;28;20236;-83
2021/03/05 00:11:02;;;;;;;0.10;0.10;;;5.00;99.90;;;;;;5012721;28;20188;-83
2021/03/05 00:13:28;;;;;;;0.10;0.10;;;5.00;99.90;;;;;;5011097;28;20780;-84
2021/03/05 00:15:54;;;;;;;0.20;0.20;;;5.00;99.90;;;;;;5011798;28;20187;-83
2021/03/05 00:18:19;;;;;;;0.30;0.30;;;5.00;99.90;;;;;;5007856;28;20340;-83
2021/03/05 00:20:48;;;;;;;0.20;0.20;;;5.00;99.90;;;;;;5011628;28;20190;-84
2021/03/05 00:23:14;;;;;;;0.10;0.10;;;5.20;99.90;;;;;;5010826;28;20190;-83
2021/03/05 00:25:40;;;;;;;0.33;0.33;;;5.20;99.90;;;;;;5010954;28;20591;-83
2021/03/05 00:28:06;;;;;;;0.10;0.10;;;5.20;99.90;;;;;;5011427;28;20186;-83
2021/03/05 00:30:34;;;;;;;1.53;0.60;;;5.20;99.90;;;;;;5009661;28;20192;-83
2021/03/05 00:33:00;;;;;;;0.57;0.57;;;5.10;99.90;;;;;;5010479;28;20250;-83
2021/03/05 00:35:26;;;;;;;0.10;0.10;;;5.20;99.90;;;;;;5009168;28;20597;-83
2021/03/05 00:37:51;;;;;;;0.20;0.20;;;5.00;99.90;;;;;;5012985;28;20183;-83
2021/03/05 00:40:19;;;;;;;0.20;0.20;;;4.90;99.90;;;;;;5007827;28;20248;-83
2021/03/05 00:42:45;;;;;;;0.40;0.40;;;5.00;99.90;;;;;;5010697;28;20278;-83
2021/03/05 00:45:13;;;;;;;0.70;0.53;;;5.10;99.90;;;;;;5010303;28;20187;-84
2021/03/05 00:47:38;;;;;;;0.37;0.37;;;5.10;99.90;;;;;;4999332;28;20182;-81
2021/03/05 00:50:05;;;;;;;0.97;0.23;;;5.30;99.90;;;;;;5011643;28;20295;-83
2021/03/05 00:52:31;;;;;;;0.20;0.13;;;5.20;99.90;;;;;;5009357;28;20173;-83
2021/03/05 00:54:57;;;;;;;0.00;0.00;;;5.20;99.90;;;;;;5011850;28;20697;-84
2021/03/05 00:57:22;;;;;;;0.33;0.33;;;5.30;99.90;;;;;;5011723;28;20240;-83
2021/03/05 00:59:48;;;;;;;0.53;0.53;;;5.20;99.90;;;;;;5009377;28;20237;-83
2021/03/05 01:02:13;;;;;;;0.17;0.17;;;5.30;99.90;;;;;;5009628;28;20235;-84
2021/03/05 01:04:39;;;;;;;1.93;0.40;;;5.20;99.90;;;;;;5011836;28;20270;-83
2021/03/05 01:07:05;;;;;;;0.43;0.43;;;5.20;99.90;;;;;;5010855;28;20215;-83
2021/03/05 01:09:30;;;;;;;0.50;0.50;;;5.20;99.90;;;;;;5009908;28;20206;-83
2021/03/05 01:11:56;;;;;;;0.20;0.20;;;5.40;99.90;;;;;;5011714;28;20265;-83
2021/03/05 01:14:22;;;;;;;0.10;0.10;;;5.40;99.90;;;;;;5007130;28;20187;-83
2021/03/05 01:16:47;;;;;;;0.40;0.40;;;5.50;99.90;;;;;;5012149;28;20204;-83
2021/03/05 01:19:14;;;;;;;0.13;0.13;;;5.40;99.90;;;;;;5007882;28;20596;-82
2021/03/05 01:21:40;;;;;;;0.60;0.40;;;5.40;99.90;;;;;;5010285;28;20191;-82
2021/03/05 01:24:06;;;;;;;0.50;0.50;;;5.30;99.90;;;;;;4997672;28;20248;-83
2021/03/05 01:26:32;;;;;;;0.30;0.30;;;5.10;99.90;;;;;;5009735;28;20218;-84
2021/03/05 01:28:58;;;;;;;3.63;1.00;;;5.20;99.90;;;;;;5010585;28;20288;-84
2021/03/05 01:31:23;;;;;;;0.50;0.50;;;5.10;99.90;;;;;;5009155;28;20776;-84
2021/03/05 01:33:49;;;;;;;0.37;0.20;;;5.10;99.90;;;;;;5009766;28;21446;-84
2021/03/05 01:36:15;;;;;;;1.13;0.77;;;5.20;99.90;;;;;;5009935;28;20662;-83
2021/03/05 01:38:40;;;;;;;0.20;0.20;;;5.40;99.90;;;;;;5009547;28;20219;-83
2021/03/05 01:41:06;;;;;;;0.10;0.10;;;5.40;99.90;;;;;;5007728;28;20282;-84
2021/03/05 01:43:34;;;;;;;0.20;0.20;;;5.40;99.90;;;;;;5009411;28;20199;-84
2021/03/05 01:46:00;;;;;;;0.20;0.20;;;5.60;99.90;;;;;;5010394;28;20296;-83
2021/03/05 01:48:26;;;;;;;0.60;0.43;;;5.70;99.90;;;;;;5011092;28;20210;-83
2021/03/05 01:51:09;;;;;;;0.00;0.00;;;5.60;99.90;;;;;;5009447;28;20232;-85
2021/03/05 01:53:34;;;;;;;0.10;0.10;;;5.80;99.90;;;;;;5009418;28;20189;-83
2021/03/05 01:56:01;;;;;;;0.30;0.30;;;5.80;99.90;;;;;;5009517;28;20660;-83
2021/03/05 01:58:27;;;;;;;0.83;0.60;;;5.90;99.90;;;;;;5008963;28;20679;-84
2021/03/05 02:00:58;;;;;;;0.53;0.30;;;6.00;99.90;;;;;;5010680;28;20190;-83
2021/03/05 02:03:24;;;;;;;0.10;0.10;;;5.90;99.90;;;;;;5011289;28;20199;-83
2021/03/05 02:05:49;;;;;;;0.10;0.10;;;5.90;99.90;;;;;;5009190;28;20238;-83
2021/03/05 02:08:15;;;;;;;3.30;0.50;;;5.80;99.90;;;;;;5010222;28;20279;-84
2021/03/05 02:10:41;;;;;;;0.30;0.30;;;5.80;99.90;;;;;;5011184;28;20262;-84
2021/03/05 02:13:08;;;;;;;0.20;0.20;;;5.80;99.90;;;;;;5013491;28;20602;-84
2021/03/05 02:15:37;;;;;;;0.10;0.10;;;5.90;99.90;;;;;;5013417;28;20195;-83
2021/03/05 02:18:14;;;;;;;0.67;0.60;;;6.00;99.90;;;;;;5008474;28;20222;-83
2021/03/05 02:21:05;;;;;;;0.37;0.37;;;6.00;99.90;;;;;;5014864;28;20205;-84
2021/03/05 02:23:49;;;;;;;0.63;0.40;;;5.90;99.90;;;;;;5013284;28;20191;-83
2021/03/05 02:26:53;;;;;;;0.93;0.60;;;6.00;99.90;;;;;;5013854;28;20214;-83
2021/03/05 02:29:21;;;;;;;0.20;0.20;;;5.80;99.90;;;;;;4990284;28;20686;-83
2021/03/05 02:32:03;;;;;;;0.17;0.13;;;5.90;99.90;;;;;;5011574;28;20658;-84
2021/03/05 02:34:33;;;;;;;0.77;0.57;;;5.90;99.90;;;;;;5009242;28;20179;-83
2021/03/05 02:37:08;;;;;;;1.10;1.07;;;5.70;99.90;;;;;;5012852;28;20192;-83
2021/03/05 02:39:39;;;;;;;0.20;0.20;;;5.90;99.90;;;;;;4999547;28;20212;-84
2021/03/05 02:42:08;;;;;;;0.40;0.30;;;6.00;99.90;;;;;;5010599;28;20216;-83
2021/03/05 02:44:43;;;;;;;0.23;0.23;;;6.00;99.90;;;;;;5015618;28;20187;-84
2021/03/05 02:47:13;;;;;;;0.50;0.50;;;6.00;99.90;;;;;;5013116;28;20210;-84
2021/03/05 02:49:41;;;;;;;0.50;0.50;;;6.00;99.90;;;;;;5008166;28;20257;-83
2021/03/05 02:52:11;;;;;;;0.43;0.43;;;5.90;99.90;;;;;;5010820;28;20183;-83
2021/03/05 02:54:39;;;;;;;0.77;0.43;;;5.70;99.90;;;;;;5014806;28;20249;-87
2021/03/05 02:57:07;;;;;;;0.50;0.50;;;5.80;99.90;;;;;;5027460;28;20198;-84
2021/03/05 02:59:36;;;;;;;1.03;0.83;;;5.50;99.90;;;;;;5018812;28;20207;-86
2021/03/05 03:02:03;;;;;;;0.77;0.77;;;5.40;99.90;;;;;;5015171;28;20540;-84
2021/03/05 03:04:29;;;;;;;0.90;0.90;;;5.30;99.90;;;;;;5015003;28;20839;-84
2021/03/05 03:06:56;;;;;;;0.70;0.60;;;5.30;99.90;;;;;;5015618;28;20605;-84
2021/03/05 03:09:22;;;;;;;0.40;0.40;;;5.30;99.90;;;;;;5011259;28;20612;-84
2021/03/05 03:11:48;;;;;;;0.63;0.63;;;5.30;99.90;;;;;;5014125;28;20189;-84
2021/03/05 03:14:15;;;;;;;1.60;0.97;;;5.40;99.90;;;;;;5014858;28;20233;-84
2021/03/05 03:16:43;;;;;;;0.57;0.57;;;5.00;99.90;;;;;;5015817;28;20195;-84
2021/03/05 03:19:13;;;;;;;0.47;0.47;;;5.00;99.90;;;;;;5013698;28;20218;-84
2021/03/05 03:21:40;;;;;;;0.20;0.20;;;5.10;99.90;;;;;;5012001;28;20269;-84
2021/03/05 03:24:07;;;;;;;0.33;0.33;;;5.10;99.90;;;;;;5013230;28;20233;-85
2021/03/05 03:26:35;;;;;;;1.20;0.63;;;5.00;99.90;;;;;;5012317;28;20244;-84
2021/03/05 03:29:01;;;;;;;0.20;0.20;;;4.90;99.90;;;;;;5013505;28;20209;-84
2021/03/05 03:31:28;;;;;;;1.90;0.90;;;5.00;99.90;;;;;;5014073;28;20177;-84
2021/03/05 03:33:54;;;;;;;0.20;0.20;;;4.90;99.90;;;;;;5009737;28;20183;-84
2021/03/05 03:36:20;;;;;;;0.30;0.30;;;4.90;99.90;;;;;;5013689;28;20204;-84
2021/03/05 03:38:48;;;;;;;0.20;0.20;;;4.90;99.90;;;;;;5013780;28;20225;-85
2021/03/05 03:41:14;;;;;;;0.40;0.40;;;4.70;99.90;;;;;;5011569;28;20274;-85
2021/03/05 03:43:40;;;;;;;0.87;0.60;;;4.80;99.90;;;;;;5012273;28;20184;-85
2021/03/05 03:46:08;;;;;;;0.47;0.43;;;4.70;99.90;;;;;;5011403;28;20209;-84
2021/03/05 03:48:37;;;;;;;0.37;0.37;;;4.80;99.90;;;;;;5004129;28;20228;-84
2021/03/05 03:51:06;;;;;;;0.30;0.30;;;4.70;99.90;;;;;;5012105;28;20253;-84
2021/03/05 03:53:35;;;;;;;0.33;0.33;;;4.70;99.90;;;;;;5014857;28;20243;-85
2021/03/05 03:56:02;;;;;;;0.20;0.20;;;4.70;99.90;;;;;;5004610;28;20266;-84
2021/03/05 03:58:30;;;;;;;0.20;0.20;;;4.80;99.90;;;;;;5002849;28;20744;-85
2021/03/05 04:00:59;;;;;;;0.40;0.40;;;4.90;99.90;;;;;;5012209;28;20183;-84
2021/03/05 04:03:28;;;;;;;0.10;0.10;;;4.80;99.90;;;;;;5027628;28;20266;-85
2021/03/05 04:05:55;;;;;;;0.20;0.20;;;4.90;99.90;;;;;;5010167;28;20332;-85
2021/03/05 04:08:23;;;;;;;0.23;0.20;;;4.70;99.90;;;;;;5012379;28;20602;-85
2021/03/05 04:10:48;;;;;;;0.67;0.37;;;4.70;99.90;;;;;;5011823;28;20171;-84
2021/03/05 04:13:15;;;;;;;0.23;0.23;;;4.80;99.90;;;;;;5013659;28;20239;-85
2021/03/05 04:15:41;;;;;;;0.87;0.67;;;4.70;99.90;;;;;;5011234;28;20269;-84
2021/03/05 04:18:07;;;;;;;0.20;0.20;;;4.80;99.90;;;;;;5011666;28;20270;-84
2021/03/05 04:20:39;;;;;;;0.00;0.00;;;4.90;99.90;;;;;;5009060;28;20197;-84
2021/03/05 04:23:06;;;;;;;0.30;0.30;;;5.10;99.90;;;;;;5001402;28;20179;-84
2021/03/05 04:25:32;;;;;;;0.50;0.50;;;5.10;99.90;;;;;;5012229;28;20706;-84
2021/03/05 04:27:58;;;;;;;0.67;0.33;;;5.10;99.90;;;;;;5014140;28;20177;-84
2021/03/05 04:30:24;;;;;;;0.00;0.00;;;5.10;99.90;;;;;;5011829;28;20209;-84
2021/03/05 04:32:50;;;;;;;0.20;0.20;;;5.00;99.90;;;;;;5007057;28;20201;-85
2021/03/05 04:35:15;;;;;;;0.27;0.27;;;4.80;99.90;;;;;;5013288;28;20178;-86
2021/03/05 04:37:41;;;;;;;0.43;0.27;;;4.80;99.90;;;;;;5012447;28;20179;-84
2021/03/05 04:40:09;;;;;;;0.10;0.10;;;4.90;99.90;;;;;;5013868;28;20256;-85
2021/03/05 04:42:35;;;;;;;0.30;0.30;;;4.80;99.90;;;;;;5013073;28;20181;-84
2021/03/05 04:45:02;;;;;;;0.10;0.10;;;4.80;99.90;;;;;;5007074;28;20261;-84
2021/03/05 04:47:28;;;;;;;0.07;0.07;;;4.70;99.90;;;;;;5011891;28;20259;-84
2021/03/05 04:49:53;;;;;;;0.10;0.10;;;4.80;99.90;;;;;;5011308;28;20213;-85
2021/03/05 04:52:19;;;;;;;0.30;0.30;;;4.80;99.90;;;;;;5012756;28;20187;-85
2021/03/05 04:54:44;;;;;;;0.40;0.40;;;4.70;99.90;;;;;;5013584;28;20273;-85
2021/03/05 04:57:10;;;;;;;0.20;0.20;;;4.50;99.90;;;;;;5012887;28;20199;-85
2021/03/05 04:59:35;;;;;;;0.10;0.10;;;4.60;99.90;;;;;;5018460;28;20267;-85
2021/03/05 05:02:01;;;;;;;0.23;0.10;;;4.60;99.90;;;;;;5050435;23;20235;-79
2021/03/05 05:04:27;;;;;;;0.20;0.20;;;4.60;99.90;;;;;;5032357;28;20186;-80
2021/03/05 05:06:52;;;;;;;0.00;0.00;;;4.40;99.90;;;;;;5033067;28;20307;-79
2021/03/05 05:09:19;;;;;;;0.10;0.10;;;4.40;99.90;;;;;;5059804;28;20219;-81
2021/03/05 05:11:45;;;;;;;0.00;0.00;;;4.50;99.90;;;;;;5032790;28;20212;-80
2021/03/05 05:14:11;;;;;;;0.10;0.10;;;4.50;99.90;;;;;;5032218;28;20221;-81
2021/03/05 05:16:37;;;;;;;0.20;0.20;;;4.60;99.90;;;;;;5033596;28;20196;-81
2021/03/05 05:19:03;;;;;;;0.60;0.60;;;4.40;99.90;;;;;;5031483;28;20665;-80
2021/03/05 05:21:28;;;;;;;0.63;0.63;;;4.50;99.90;;;;;;5031311;28;20217;-81
2021/03/05 05:23:54;;;;;;;1.17;0.83;;;4.60;99.90;;;;;;5030951;28;20192;-80
2021/03/05 05:26:19;;;;;;;0.03;0.03;;;4.40;99.90;;;;;;5031365;28;20399;-81
2021/03/05 05:28:45;;;;;;;0.17;0.17;;;4.50;99.90;;;;;;5031053;28;20667;-81
2021/03/05 05:31:10;;;;;;;0.10;0.10;;;4.50;99.90;;;;;;5031141;28;20265;-79
2021/03/05 05:33:36;;;;;;;0.00;0.00;;;4.30;99.90;;;;;;5031797;28;20210;-80
2021/03/05 05:36:02;;;;;;;3.93;0.13;;;4.30;99.90;;;;;;5044925;28;20195;-81
2021/03/05 05:38:27;;;;;;;0.43;0.43;;;4.50;99.90;;;;;;5031815;28;20184;-82
2021/03/05 05:40:53;;;;;;;0.67;0.67;;;4.20;99.90;;;;;;5046400;28;20214;-80
2021/03/05 05:43:18;;;;;;;1.60;0.87;;;4.10;99.90;;;;;;5033354;28;20238;-80
2021/03/05 05:45:45;;;;;;;0.13;0.13;;;4.20;99.90;;;;;;5033077;28;20582;-84
2021/03/05 05:48:12;;;;;;;0.30;0.30;;;4.20;99.90;;;;;;5028371;28;20186;-82
2021/03/05 05:50:39;;;;;;;0.20;0.20;;;4.30;99.90;;;;;;5036183;28;20291;-84
2021/03/05 05:53:07;;;;;;;0.10;0.10;;;4.20;99.90;;;;;;5034476;28;20181;-84
2021/03/05 05:55:32;;;;;;;0.37;0.37;;;4.20;99.90;;;;;;5032827;28;20188;-84
2021/03/05 05:57:58;;;;;;;0.60;0.43;;;4.10;99.90;;;;;;5032680;28;20663;-85
2021/03/05 06:00:25;;;;;;;0.00;0.00;;;3.90;99.90;;;;;;5030769;28;20647;-80
2021/03/05 06:02:52;;;;;;;0.30;0.30;;;4.00;99.90;;;;;;5035244;28;20191;-80
2021/03/05 06:05:18;;;;;;;6.03;0.63;;;4.10;99.90;;;;;;5026506;28;20262;-80
2021/03/05 06:07:44;;;;;;;0.10;0.10;;;4.00;99.90;;;;;;5051069;28;20305;-80
2021/03/05 06:10:11;;;;;;;0.20;0.20;;;4.00;99.90;;;;;;5032424;28;20656;-80
2021/03/05 06:12:38;;;;;;;0.10;0.10;;;3.90;99.90;;;;;;5033206;28;20171;-84
2021/03/05 06:15:04;;;;;;;0.50;0.37;;;3.90;99.90;;;;;;5031822;28;20264;-83
2021/03/05 06:17:46;;;;;;;0.43;0.27;;;3.80;99.90;;;;;;5032109;28;20187;-80
2021/03/05 06:20:14;;;;;;;0.93;0.43;;;4.00;99.90;;;;;;5028815;28;20179;-81
2021/03/05 06:22:40;;;;;;;0.63;0.40;;;4.00;99.90;;;;;;5030232;28;20209;-81
2021/03/05 06:25:09;;;;;;;0.07;0.07;;;4.00;99.90;;;;;;5027034;28;20194;-81
2021/03/05 06:27:36;;;;;;;0.70;0.30;;;4.10;99.90;;;;;;5030970;28;20219;-81
2021/03/05 06:30:03;;;;;;;0.40;0.40;;;4.10;99.90;;;;;;5029882;28;20177;-81
2021/03/05 06:32:40;;;;;;;0.57;0.57;;;4.20;99.90;;;;;;5032994;28;20207;-81
2021/03/05 06:35:08;;;;;;;0.13;0.13;;;4.10;99.90;;;;;;5031113;28;20850;-82
2021/03/05 06:37:47;;;;;;;0.40;0.40;;;4.20;99.90;;;;;;5033284;28;20198;-80
2021/03/05 06:40:15;;;;;;;0.00;0.00;;;4.20;99.90;;;;;;5029861;28;20180;-81
2021/03/05 06:43:07;;;;;;;0.20;0.20;;;4.20;99.90;;;;;;5032814;28;20192;-81
2021/03/05 06:45:36;;;;;;;0.57;0.53;;;4.10;99.90;;;;;;5031063;28;20278;-81
2021/03/05 06:48:06;;;;;;;1.00;1.00;;;4.20;99.90;;;;;;5031980;28;20201;-83
2021/03/05 06:50:33;;;;;;;0.20;0.20;;;4.10;99.90;;;;;;5032883;28;20211;-81
2021/03/05 06:52:59;;;;;;;0.43;0.43;;;4.10;99.90;;;;;;5030210;28;20226;-82
2021/03/05 06:55:25;;;;;;;0.20;0.20;;;4.20;99.90;;;;;;5032637;28;20267;-82
2021/03/05 06:57:53;;;;;;;0.17;0.17;;;4.20;99.90;;;;;;5033276;28;20191;-81
2021/03/05 07:00:23;;;;;;;0.10;0.10;;;4.10;99.90;;;;;;5030364;28;20199;-82
2021/03/05 07:02:50;;;;;;;0.10;0.10;;;4.30;99.90;;;;;;5031420;28;20191;-82
2021/03/05 07:05:17;;;;;;;0.10;0.10;;;4.40;99.90;;;;;;5031408;28;20205;-81
2021/03/05 07:07:49;;;;;;;0.20;0.20;;;4.50;99.90;;;;;;5031597;28;20213;-82
2021/03/05 07:10:15;;;;;;;0.10;0.10;;;4.40;99.90;;;;;;5030957;28;20578;-82
2021/03/05 07:13:02;;;;;;;0.33;0.33;;;4.40;99.90;;;;;;5032604;28;20606;-82
2021/03/05 07:15:28;;;;;;;0.20;0.20;;;4.60;99.90;;;;;;5031936;28;20273;-80
2021/03/05 07:17:54;;;;;;;0.20;0.20;;;4.40;99.90;;;;;;5031568;28;20218;-79
2021/03/05 07:20:19;;;;;;;0.20;0.20;;;4.40;99.90;;;;;;5030203;28;20261;-81
2021/03/05 07:22:48;;;;;;;0.10;0.10;;;4.50;99.90;;;;;;5029975;28;20186;-84
2021/03/05 07:25:20;;;;;;;0.97;0.30;;;4.70;99.90;;;;;;5035965;28;20187;-80
2021/03/05 07:27:50;;;;;;;1.40;0.90;;;4.60;99.90;;;;;;5032859;28;20662;-80
2021/03/05 07:30:19;;;;;;;0.10;0.10;;;4.60;99.90;;;;;;5027083;28;20676;-80
2021/03/05 07:32:47;;;;;;;0.77;0.20;;;4.90;99.90;;;;;;5019326;28;20200;-81
2021/03/05 07:35:20;;;;;;;0.10;0.10;;;5.10;99.90;;;;;;5025316;28;20188;-82
2021/03/05 07:37:49;;;;;;;0.60;0.60;;;4.90;99.90;;;;;;5029732;28;20184;-80
2021/03/05 07:40:16;;;;;;;0.23;0.20;;;5.00;99.90;;;;;;5030598;28;20204;-81
2021/03/05 07:42:42;;;;;;;0.10;0.10;;;4.80;99.90;;;;;;5031922;28;20722;-81
2021/03/05 07:45:10;;;;;;;0.23;0.23;;;4.90;99.90;;;;;;5029169;28;20187;-80
2021/03/05 07:47:37;;;;;;;0.53;0.30;;;4.90;99.90;;;;;;5030856;28;20501;-81
2021/03/05 07:50:06;;;;;;;0.13;0.13;;;4.90;99.90;;;;;;5025982;28;20196;-82
2021/03/05 07:52:32;;;;;;;0.10;0.10;;;5.00;99.90;;;;;;5029102;28;20217;-82
2021/03/05 07:54:58;;;;;;;0.17;0.17;;;5.20;99.90;;;;;;5025417;28;20236;-81
2021/03/05 07:57:23;;;;;;;0.53;0.30;;;5.10;99.90;;;;;;5017428;28;20585;-81
2021/03/05 07:59:50;;;;;;;4.20;1.00;;;4.90;99.90;;;;;;5042981;28;20205;-81
2021/03/05 08:02:17;;;;;;;0.20;0.20;;;4.90;99.90;;;;;;5025618;28;20567;-82
2021/03/05 08:04:49;;;;;;;0.77;0.57;;;4.90;99.90;;;;;;5024927;28;20192;-80
2021/03/05 08:07:26;;;;;;;0.37;0.37;;;5.10;99.90;;;;;;5018969;28;20251;-88
2021/03/05 08:09:52;;;;;;;1.37;0.27;;;5.10;99.90;;;;;;5029628;28;21078;-82
2021/03/05 08:12:31;;;;;;;0.87;0.77;;;5.30;99.90;;;;;;5045951;28;20674;-81
2021/03/05 08:15:09;;;;;;;1.73;1.63;;;5.20;99.90;;;;;;5042471;28;20658;-80
2021/03/05 08:17:41;;;;;;;0.77;0.53;;;5.00;99.90;;;;;;5031011;28;20190;-79
2021/03/05 08:20:07;;;;;;;0.83;0.83;;;5.00;99.90;;;;;;5031740;28;20238;-82
2021/03/05 08:22:53;;;;;;;0.27;0.20;;;5.00;99.90;;;;;;5031716;28;20189;-81
2021/03/05 08:25:32;;;;;;;0.77;0.50;;;5.00;99.90;;;;;;5030161;28;20192;-81
2021/03/05 08:28:00;;;;;;;0.37;0.37;;;4.90;99.90;;;;;;5038357;28;20196;-81
2021/03/05 08:30:29;;;;;;;0.30;0.30;;;5.00;99.90;;;;;;5033668;28;20181;-81
2021/03/05 08:33:07;;;;;;;0.87;0.53;;;5.00;99.90;;;;;;5035020;28;20190;-81
2021/03/05 08:35:34;;;;;;;1.13;0.60;;;4.90;99.90;;;;;;5035012;28;20199;-80
2021/03/05 08:38:04;;;;;;;0.53;0.47;;;5.00;99.90;;;;;;5034965;28;20195;-80
2021/03/05 08:40:37;;;;;;;0.50;0.50;;;5.10;99.90;;;;;;5034693;28;20228;-80
2021/03/05 08:43:27;;;;;;;0.53;0.30;;;5.20;99.90;;;;;;5034900;28;20230;-82
2021/03/05 08:46:02;;;;;;;0.40;0.20;;;5.20;99.90;;;;;;5023162;28;20581;-81
2021/03/05 08:48:27;;;;;;;0.30;0.30;;;5.40;99.90;;;;;;5033547;28;20184;-79
2021/03/05 08:51:03;;;;;;;0.53;0.17;;;5.40;99.90;;;;;;5032220;28;20629;-81
2021/03/05 08:53:29;;;;;;;0.37;0.37;;;5.50;99.90;;;;;;5034912;28;20236;-81
2021/03/05 08:55:54;;;;;;;1.50;0.50;;;5.60;99.90;;;;;;5033821;28;20193;-81
2021/03/05 08:58:21;;;;;;;0.00;0.00;;;5.70;99.90;;;;;;5033344;28;20195;-81
2021/03/05 09:00:46;;;;;;;0.10;0.10;;;5.70;99.90;;;;;;5030779;28;20699;-81
2021/03/05 09:03:14;;;;;;;1.00;0.50;;;5.70;99.90;;;;;;5033024;28;20219;-81
2021/03/05 09:05:48;;;;;;;0.27;0.27;;;5.70;99.90;;;;;;5043095;28;20273;-81
2021/03/05 09:08:16;;;;;;;1.97;0.63;;;5.50;99.90;;;;;;5033847;28;20202;-81
2021/03/05 09:10:47;;;;;;;0.67;0.67;;;5.40;99.90;;;;;;5032738;28;20593;-80
2021/03/05 09:13:16;;;;;;;1.13;0.40;;;5.50;99.90;;;;;;5033318;28;20189;-82
2021/03/05 09:15:45;;;;;;;0.33;0.33;;;5.50;99.90;;;;;;5033185;28;20182;-81
2021/03/05 09:18:14;;;;;;;2.57;0.83;;;5.80;99.90;;;;;;5032561;28;20194;-81
2021/03/05 09:20:44;;;;;;;0.50;0.47;;;5.60;99.90;;;;;;5035175;28;20204;-81
2021/03/05 09:23:21;;;;;;;0.40;0.40;;;5.30;99.90;;;;;;5036445;28;20187;-82
2021/03/05 09:25:55;;;;;;;0.23;0.23;;;5.50;99.90;;;;;;5035135;28;20211;-81
2021/03/05 09:28:24;;;;;;;0.20;0.20;;;5.60;99.90;;;;;;5032698;28;20189;-83
2021/03/05 09:30:56;;;;;;;0.63;0.63;;;5.80;99.90;;;;;;5028610;28;20293;-81
2021/03/05 09:33:33;;;;;;;0.63;0.30;;;5.80;99.90;;;;;;5045902;28;20557;-79
2021/03/05 09:36:00;;;;;;;0.20;0.20;;;5.80;99.90;;;;;;5017013;28;20178;-81
2021/03/05 09:38:26;;;;;;;0.60;0.27;;;5.90;99.90;;;;;;5027308;28;20294;-81
2021/03/05 09:40:52;;;;;;;0.40;0.30;;;6.00;99.90;;;;;;5034021;28;20704;-81
2021/03/05 09:43:18;;;;;;;4.73;0.57;;;5.80;99.90;;;;;;5049276;28;20236;-81
2021/03/05 09:45:47;;;;;;;0.20;0.20;;;5.90;99.90;;;;;;5037277;28;20649;-81
2021/03/05 09:48:33;;;;;;;0.93;0.40;;;6.20;99.90;;;;;;5036493;28;20269;-81
2021/03/05 09:51:04;;;;;;;0.63;0.60;;;6.20;99.90;;;;;;5033151;28;20214;-79
2021/03/05 09:53:38;;;;;;;0.53;0.53;;;6.10;99.90;;;;;;5032631;28;20190;-83
2021/03/05 09:56:06;;;;;;;0.70;0.70;;;5.90;99.90;;;;;;5033318;28;20256;-81
2021/03/05 09:58:32;;;;;;;1.90;0.77;;;6.00;99.90;;;;;;5033521;28;20194;-83
2021/03/05 10:00:59;;;;;;;0.57;0.20;;;6.10;99.90;;;;;;5032753;28;20229;-83
2021/03/05 10:03:25;;;;;;;0.40;0.40;;;6.40;99.90;;;;;;5037807;28;20216;-78
2021/03/05 10:05:51;;;;;;;0.30;0.30;;;6.20;99.90;;;;;;5040021;28;20214;-81
2021/03/05 10:08:24;;;;;;;0.63;0.57;;;6.30;99.90;;;;;;5037731;28;20189;-83
2021/03/05 10:10:57;;;;;;;0.53;0.53;;;6.00;99.90;;;;;;5036101;28;20206;-83
2021/03/05 10:13:57;;;;;;;0.50;0.43;;;6.00;99.90;;;;;;5038331;28;20199;-82
2021/03/05 10:16:32;;;;;;;1.27;0.50;;;6.10;99.90;;;;;;5038688;28;20220;-82
2021/03/05 10:19:02;;;;;;;0.77;0.53;;;5.80;99.90;;;;;;5038102;28;20192;-81
2021/03/05 10:21:29;;;;;;;0.90;0.67;;;6.10;99.90;;;;;;5036996;28;20206;-82
2021/03/05 10:23:55;;;;;;;0.27;0.27;;;6.10;99.90;;;;;;5037502;28;20193;-81
2021/03/05 10:26:23;;;;;;;0.60;0.60;;;6.20;99.90;;;;;;5038260;28;20648;-82
2021/03/05 10:29:15;;;;;;;6.73;2.73;;;5.80;99.90;;;;;;5037503;28;20277;-80
2021/03/05 10:31:51;;;;;;;0.40;0.40;;;5.80;99.90;;;;;;5037126;28;20233;-82
2021/03/05 10:34:35;;;;;;;0.63;0.63;;;5.80;99.90;;;;;;5054292;28;20178;-82
2021/03/05 10:37:03;;;;;;;0.30;0.30;;;5.90;99.90;;;;;;5037087;28;20214;-80
2021/03/05 10:39:32;;;;;;;0.43;0.43;;;6.40;99.90;;;;;;5027782;28;20668;-81
2021/03/05 10:42:03;;;;;;;0.20;0.20;;;6.80;99.90;;;;;;5040767;28;20347;-82
2021/03/05 10:44:31;;;;;;;2.73;0.20;;;6.90;99.90;;;;;;5029469;28;20193;-81
2021/03/05 10:47:01;;;;;;;0.27;0.27;;;6.80;99.90;;;;;;5037963;28;20635;-82
2021/03/05 10:49:27;;;;;;;0.10;0.10;;;6.90;99.90;;;;;;5035908;28;20338;-82
2021/03/05 10:51:54;;;;;;;0.83;0.20;;;7.00;99.90;;;;;;5034382;28;20214;-81
2021/03/05 10:54:19;;;;;;;0.27;0.27;;;6.80;99.90;;;;;;5031581;28;20186;-80
2021/03/05 10:56:47;;;;;;;0.57;0.57;;;6.70;99.90;;;;;;5031882;28;20749;-80
2021/03/05 10:59:15;;;;;;;0.73;0.30;;;6.90;99.90;;;;;;5033120;28;20236;-79
2021/03/05 11:01:41;;;;;;;0.67;0.43;;;6.90;99.90;;;;;;5025172;28;20229;-81
2021/03/05 11:04:06;;;;;;;0.67;0.50;;;7.10;99.90;;;;;;5025371;28;20187;-81
2021/03/05 11:06:32;;;;;;;0.67;0.67;;;7.30;99.90;;;;;;5038676;28;20729;-81
2021/03/05 11:08:59;;;;;;;0.13;0.10;;;7.20;99.90;;;;;;5025181;28;20183;-81
2021/03/05 11:11:25;;;;;;;0.10;0.10;;;7.00;99.90;;;;;;5045790;28;20292;-80
2021/03/05 11:13:51;;;;;;;0.40;0.40;;;7.40;99.90;;;;;;5029469;28;20229;-81
2021/03/05 11:16:16;;;;;;;0.47;0.47;;;7.30;99.90;;;;;;5031190;28;20186;-81
2021/03/05 11:18:42;;;;;;;0.10;0.10;;;7.20;99.90;;;;;;5032060;28;20197;-81
2021/03/05 11:21:07;;;;;;;0.63;0.50;;;7.50;99.90;;;;;;5029401;28;20206;-81
2021/03/05 11:23:33;;;;;;;0.20;0.20;;;7.00;99.90;;;;;;5036614;28;20190;-82
2021/03/05 11:25:58;;;;;;;0.10;0.10;;;6.90;99.90;;;;;;5032652;28;20229;-82
2021/03/05 11:28:24;;;;;;;0.50;0.50;;;6.80;99.90;;;;;;5036365;28;20265;-82
2021/03/05 11:30:51;;;;;;;1.23;1.17;;;6.60;99.90;;;;;;5030851;28;20204;-81
2021/03/05 11:33:17;;;;;;;0.67;0.63;;;6.40;99.90;;;;;;5039600;28;20200;-82
2021/03/05 11:35:42;;;;;;;0.40;0.40;;;6.30;99.90;;;;;;5035029;28;20274;-82
2021/03/05 11:38:08;;;;;;;0.40;0.37;;;6.30;99.90;;;;;;5032461;28;20191;-81
2021/03/05 11:40:34;;;;;;;0.20;0.20;;;6.20;99.90;;;;;;5031023;28;20754;-81
2021/03/05 11:42:59;;;;;;;0.40;0.20;;;6.00;99.90;;;;;;5029341;28;20185;-82
2021/03/05 11:45:25;;;;;;;0.30;0.30;;;6.10;99.90;;;;;;5030110;28;20274;-80
2021/03/05 11:47:51;;;;;;;1.73;0.20;;;6.10;99.90;;;;;;5030510;28;20923;-82
2021/03/05 11:50:16;;;;;;;0.10;0.10;;;6.10;99.90;;;;;;5028762;28;20182;-82
2021/03/05 11:52:44;;;;;;;0.30;0.30;;;6.00;99.90;;;;;;5031725;28;20228;-82
2021/03/05 11:55:09;;;;;;;0.20;0.20;;;6.10;99.90;;;;;;5027624;28;20277;-81
2021/03/05 11:57:35;;;;;;;0.17;0.17;;;6.10;99.90;;;;;;5031688;28;20666;-83
2021/03/05 12:00:03;;;;;;;0.30;0.30;;;6.20;99.90;;;;;;5032668;28;20189;-83
2021/03/05 12:02:28;;;;;;;0.20;0.20;;;6.30;99.90;;;;;;5031467;28;20225;-82
2021/03/05 12:04:55;;;;;;;0.30;0.30;;;6.30;99.90;;;;;;5032892;28;20181;-82
2021/03/05 12:07:21;;;;;;;0.20;0.20;;;6.40;99.90;;;;;;5029291;28;20706;-83
2021/03/05 12:09:46;;;;;;;0.20;0.20;;;6.50;99.90;;;;;;5045478;28;20181;-82
2021/03/05 12:12:12;;;;;;;0.20;0.20;;;6.50;99.90;;;;;;5030467;28;20654;-80
2021/03/05 12:14:38;;;;;;;0.67;0.60;;;6.60;99.90;;;;;;5032895;28;20182;-82
2021/03/05 12:17:05;;;;;;;0.20;0.20;;;6.70;99.90;;;;;;5032721;28;20190;-82
2021/03/05 12:19:30;;;;;;;0.30;0.30;;;6.80;99.90;;;;;;5030905;28;20565;-82
2021/03/05 12:21:56;;;;;;;0.50;0.30;;;6.80;99.90;;;;;;5030957;28;20289;-81
2021/03/05 12:24:22;;;;;;;0.27;0.27;;;6.60;99.90;;;;;;5033002;28;20182;-81
2021/03/05 12:26:48;;;;;;;0.40;0.40;;;6.70;99.90;;;;;;5033861;28;20221;-82
2021/03/05 12:29:13;;;;;;;0.30;0.30;;;6.70;99.90;;;;;;5030956;28;20189;-82
2021/03/05 12:31:39;;;;;;;0.13;0.10;;;6.60;99.90;;;;;;5038686;28;20206;-83
2021/03/05 12:34:04;;;;;;;0.60;0.50;;;6.90;99.90;;;;;;5032025;28;20200;-85
2021/03/05 12:36:30;;;;;;;0.37;0.37;;;6.90;99.90;;;;;;5029843;28;20198;-81
2021/03/05 12:38:56;;;;;;;0.87;0.40;;;7.00;99.90;;;;;;5029588;28;20190;-82
2021/03/05 12:41:22;;;;;;;0.30;0.30;;;7.00;99.90;;;;;;5019771;28;20690;-81
2021/03/05 12:43:47;;;;;;;0.27;0.20;;;6.90;99.90;;;;;;5021333;28;20189;-81
2021/03/05 12:46:13;;;;;;;0.60;0.43;;;7.00;99.90;;;;;;5030147;28;20241;-82
2021/03/05 12:48:39;;;;;;;0.30;0.30;;;6.70;99.90;;;;;;5037902;28;20714;-80
2021/03/05 12:51:06;;;;;;;0.10;0.10;;;6.60;99.90;;;;;;5028507;28;20576;-82
2021/03/05 12:53:31;;;;;;;0.40;0.40;;;6.70;99.90;;;;;;5029684;28;20623;-81
2021/03/05 12:55:57;;;;;;;0.40;0.40;;;6.70;99.90;;;;;;5023732;28;20182;-81
2021/03/05 12:58:23;;;;;;;0.10;0.10;;;6.80;99.90;;;;;;5030284;28;20567;-81
2021/03/05 13:00:48;;;;;;;0.27;0.20;;;6.90;99.90;;;;;;5036185;28;20274;-84
2021/03/05 13:03:14;;;;;;;0.20;0.20;;;6.80;99.90;;;;;;5032472;28;20194;-82